Flight Track Log - Related Links

Times and Time Zones

All times are in EDT time to prevent confusion due to time zone crossing. See the FDX90 flight status page for this flight to view local times or setup timezone preferences in your user account.

Time Position Orientation Groundspeed Altitude Reporting Facility
EDT Latitude Longitude Course Direction KTS MPH feet Rate Location/Type
Mon 11:17:08 AM 31.1254 121.7995 162° South 198 228 600  Level FlightAware (ZSSL)
Mon 11:17:22 AM 31.1131 121.8043 161° South 194 223 1,400 3,200 Climbing FlightAware (ZSSL)
Mon 11:17:38 AM 31.0999 121.8096 161° South 188 216 2,200 2,200 Climbing FlightAware (ZSSL)
Mon 11:17:52 AM 31.0874 121.8146 161° South 196 226 2,500 1,400 Climbing FlightAware (ZSSL)
Mon 11:18:08 AM 31.0740 121.8196 162° South 203 234 2,900 1,200 Climbing FlightAware (ZSSL)
Mon 11:18:22 AM 31.0600 121.8248 161° South 215 247 3,100 621 Climbing FlightAware (ZSSL)
Mon 11:18:37 AM 31.0460 121.8303 161° South 235 270 3,200 400 Climbing FlightAware (ZSSL)
Mon 11:18:52 AM 31.0291 121.8371 161° South 246 283 3,300 600 Climbing FlightAware (ZSSL)
Mon 11:19:07 AM 31.0125 121.8433 162° South 254 292 3,500 1,400 Climbing FlightAware (ZSSL)
Mon 11:19:22 AM 30.9954 121.8495 162° South 255 293 4,000 1,600 Climbing FlightAware (ZSSL)
Mon 11:19:37 AM 30.9773 121.8562 162° South 270 311 4,300 1,200 Climbing FlightAware (ZSSL)
Mon 11:19:52 AM 30.9592 121.8643 152° Southeast 285 328 4,600 900 Climbing FlightAware (ZSSL)
Mon 11:20:17 AM 30.9389 121.8883 116° Southeast 304 350 4,900 1,200 Climbing FlightAware (ZSSL)
Mon 11:20:22 AM 30.9346 121.9009 107° East 305 351 5,200 3,000 Climbing FlightAware (ZSSL)
Mon 11:20:27 AM 30.9332 121.9091 99° East 306 352 5,400 2,182 Climbing FlightAware (ZSSL)
Mon 11:20:33 AM 30.9327 121.9184 92° East 305 351 5,600 1,800 Climbing FlightAware (ZSSL)
Mon 11:20:37 AM 30.9330 121.9250 87° East 304 350 5,700 1,800 Climbing FlightAware (ZSSL)
Mon 11:20:43 AM 30.9342 121.9346 80° East 306 352 5,900 1,200 Climbing FlightAware (ZSSL)
Mon 11:20:57 AM 30.9396 121.9556 70° East 312 359 6,100 529 Climbing FlightAware (ZSSL)
Mon 11:21:17 AM 30.9501 121.9892 70° East 315 362 6,200 1,200 Climbing FlightAware (ZSSL)
Mon 11:21:32 AM 30.9567 122.0144 74° East 315 362 6,800 2,000 Climbing FlightAware (ZSSL)
Mon 11:21:47 AM 30.9618 122.0387 76° East 318 366 7,200 1,800 Climbing FlightAware (ZSSL)
Mon 11:22:02 AM 30.9664 122.0619 77° East 323 372 7,700 2,000 Climbing FlightAware (ZSSL)
Mon 11:22:17 AM 30.9713 122.0897 79° East 324 373 8,200 2,400 Climbing FlightAware (ZSSL)
Mon 11:22:32 AM 30.9757 122.1155 78° East 322 371 8,900 2,600 Climbing FlightAware (ZSSL)
Mon 11:22:47 AM 30.9798 122.1395 78° East 320 368 9,500 1,920 Climbing FlightAware (ZSSL)
Mon 11:23:22 AM 30.9907 122.2008 77° East 329 379 10,500 1,455 Climbing FlightAware (ZSSL)
Mon 11:23:53 AM 30.9998 122.2561 83° East 347 399 11,100 1,000 Climbing FlightAware (ZSSL)
Mon 11:24:22 AM 31.0006 122.3144 90° East 372 428 11,500 1,217 Climbing FlightAware (ZSSL)
Mon 11:25:02 AM 31.0002 122.3968 90° East 386 444 12,500 1,800 Climbing FlightAware (ZSSL)
Mon 11:25:32 AM 31.0001 122.4582 90° East 385 443 13,600 307 Climbing FlightAware (ZSSL)
Mon 11:28:00 AM 31.3067 122.6441 27° Northeast  Level Estimated
Mon 11:29:00 AM 31.3595 122.7960 68° East  Level FlightAware
Mon 11:30:00 AM 31.3946 122.9561 77° East  Level FlightAware
Mon 11:31:00 AM 31.4254 123.1161 78° East  Level FlightAware
Mon 11:32:00 AM 31.4538 123.2768 78° East  Level FlightAware
Mon 11:33:00 AM 31.4920 123.4344 71° East  Level FlightAware
Mon 11:34:00 AM 31.5312 123.5913 74° East  Level FlightAware
Mon 11:35:00 AM 31.5508 123.7539 76° East  Level FlightAware
Mon 11:36:00 AM 31.5850 123.9133 76° East  Level FlightAware
Mon 11:37:00 AM 31.6250 124.0707 71° East  Level FlightAware
Mon 11:38:00 AM 31.6613 124.2295 76° East  Level FlightAware
Mon 11:39:00 AM 31.6955 124.3891 76° East  Level FlightAware
Mon 11:40:00 AM 31.7295 124.5488 76° East  Level FlightAware
Mon 11:41:00 AM 31.7620 124.7090 77° East  Level FlightAware
Mon 11:42:00 AM 31.7940 124.8693 77° East  Level FlightAware
Mon 11:43:00 AM 31.8270 125.0295 75° East  Level FlightAware
Mon 11:44:00 AM 31.8624 125.1890 75° East  Level FlightAware
Mon 11:45:00 AM 31.8977 125.3486 75° East  Level FlightAware
Mon 11:46:00 AM 31.9328 125.5083 75° East  Level FlightAware
Mon 11:47:00 AM 31.9676 125.6682 76° East  Level FlightAware
Mon 11:48:00 AM 32.0023 125.8281 76° East  Level FlightAware
Mon 11:49:00 AM 32.0368 125.9882 76° East  Level FlightAware
Mon 11:50:00 AM 32.0720 126.1481 75° East  Level FlightAware
Mon 11:51:00 AM 32.1077 126.3080 75° East  Level FlightAware
Mon 11:52:00 AM 32.1432 126.4679 75° East  Level FlightAware
Mon 11:53:00 AM 32.1785 126.6280 75° East  Level FlightAware
Mon 11:54:00 AM 32.2153 126.7877 75° East  Level FlightAware
Mon 11:55:00 AM 32.2522 126.9474 75° East  Level FlightAware
Mon 11:56:00 AM 32.2888 127.1072 75° East  Level FlightAware
Mon 11:57:00 AM 32.3253 127.2672 75° East  Level FlightAware
Mon 11:58:00 AM 32.3616 127.4273 75° East  Level FlightAware
Mon 11:59:00 AM 32.3977 127.5875 75° East  Level FlightAware
Mon 12:00:00 PM 32.4335 127.7479 75° East  Level FlightAware
Mon 12:01:00 PM 32.4692 127.9084 75° East  Level FlightAware
Mon 12:02:00 PM 32.5047 128.0690 75° East  Level FlightAware
Mon 12:03:00 PM 32.5399 128.2297 75° East  Level FlightAware
Mon 12:04:00 PM 32.5750 128.3906 75° East  Level FlightAware
Mon 12:05:00 PM 32.6098 128.5516 76° East  Level FlightAware
Mon 12:06:00 PM 32.6444 128.7127 76° East  Level FlightAware
Mon 12:07:00 PM 32.6827 128.8726 71° East  Level FlightAware
Mon 12:08:00 PM 32.7277 129.0302 71° East  Level FlightAware
Mon 12:09:00 PM 32.7728 129.1878 71° East  Level FlightAware
Mon 12:10:00 PM 32.8183 129.3454 71° East  Level FlightAware
Mon 12:11:00 PM 32.8637 129.5031 71° East  Level FlightAware
Mon 12:12:00 PM 32.9088 129.6609 71° East  Level FlightAware
Mon 12:13:00 PM 32.9537 129.8190 71° East  Level FlightAware
Mon 12:14:00 PM 32.9985 129.9772 71° East  Level FlightAware
Mon 12:15:00 PM 33.0430 130.1355 71° East  Level FlightAware
Mon 12:16:00 PM 33.0874 130.2940 71° East  Level FlightAware
Mon 12:17:00 PM 33.1315 130.4527 72° East  Level FlightAware
Mon 12:18:00 PM 33.1754 130.6115 72° East  Level FlightAware
Mon 12:18:52 PM 32.8022 130.1967 77° East 483 556 29,000  Level FlightAware
Mon 12:19:24 PM 32.8144 130.2639 77° East 483 556 29,000  Level FlightAware
Mon 12:19:55 PM 32.8320 130.3604 77° East 483 556 29,000  Level FlightAware
Mon 12:20:15 PM 32.8415 130.4132 77° East 482 555 29,000  Level FlightAware
Mon 12:20:47 PM 32.8563 130.4953 78° East 482 555 29,000  Level FlightAware
Mon 12:21:21 PM 32.8723 130.5841 78° East 481 554 29,000  Level FlightAware
Mon 12:21:50 PM 32.8857 130.6587 78° East 480 552 29,000  Level FlightAware
Mon 12:22:24 PM 32.9009 130.7443 78° East 480 552 29,000  Level FlightAware
Mon 12:22:54 PM 32.9148 130.8228 78° East 480 552 29,000  Level FlightAware
Mon 12:23:24 PM 32.9286 130.9007 78° East 480 552 29,000  Level FlightAware
Mon 12:23:50 PM 32.9406 130.9688 78° East 480 552 29,000  Level FlightAware
Mon 12:24:23 PM 32.9556 131.0541 78° East 479 551 29,000  Level FlightAware
Mon 12:24:54 PM 32.9695 131.1333 78° East 479 551 29,000  Level FlightAware
Mon 12:25:24 PM 32.9830 131.2114 78° East 479 551 29,000  Level FlightAware
Mon 12:25:50 PM 32.9938 131.2737 78° East 479 551 29,000  Level FlightAware
Mon 12:26:17 PM 33.0051 131.3390 78° East 480 552 29,000  Level FlightAware
Mon 12:26:27 PM 33.0100 131.3672 78° East 480 552 29,000  Level FlightAware
Mon 12:27:28 PM 33.0381 131.5311 78° East 480 552 29,000  Level FlightAware
Mon 12:28:06 PM 33.0435 131.5622 78° East 480 552 29,000  Level FlightAware
Mon 12:28:56 PM 33.0688 131.7112 78° East 480 552 29,000  Level FlightAware
Mon 12:29:45 PM 33.0887 131.8290 78° East 480 552 29,000  Level FlightAware
Mon 12:30:20 PM 33.1134 131.9763 78° East 481 554 29,000  Level FlightAware
Mon 12:31:01 PM 33.1143 131.9818 78° East 481 554 29,000  Level FlightAware
Mon 12:57:52 PM 34.1305 136.2067 67° East 481 554 29,000  Level FlightAware
Mon 12:58:00 PM 34.5490 136.0630 74° East  Level FlightAware
Mon 12:58:27 PM 34.1631 136.2932 67° East 481 554 29,000  Level FlightAware
Mon 12:59:11 PM 34.2039 136.4018 67° East 481 554 29,000  Level FlightAware
Mon 12:59:52 PM 34.2409 136.5008 66° East 484 557 29,000  Level FlightAware
Mon 01:00:32 PM 34.2780 136.6003 66° East 484 557 29,000  Level FlightAware
Mon 01:01:11 PM 34.3142 136.6976 66° East 483 556 29,000  Level FlightAware
Mon 01:01:52 PM 34.3519 136.7991 66° East 484 557 29,000  Level FlightAware
Mon 01:02:32 PM 34.3880 136.8969 66° East 482 555 29,000  Level FlightAware
Mon 01:03:12 PM 34.4245 136.9961 66° East 481 554 29,000  Level FlightAware
Mon 01:04:05 PM 34.4720 137.1253 66° East 481 554 29,000  Level FlightAware
Mon 01:04:52 PM 34.5139 137.2398 66° East 480 552 29,000  Level FlightAware
Mon 01:05:32 PM 34.5499 137.3385 66° East 479 551 29,000  Level FlightAware
Mon 01:06:12 PM 34.5857 137.4373 66° East 479 551 29,000  Level FlightAware
Mon 01:06:52 PM 34.6214 137.5358 66° East 479 551 29,000  Level FlightAware
Mon 01:07:32 PM 34.6571 137.6346 66° East 478 550 29,000  Level FlightAware
Mon 01:08:13 PM 34.6931 137.7344 67° East 474 545 29,000  Level FlightAware
Mon 01:08:52 PM 34.7273 137.8300 67° East 474 545 29,000  Level FlightAware
Mon 01:09:31 PM 34.7625 137.9281 68° East 475 547 29,000  Level FlightAware
Mon 01:10:09 PM 34.7956 138.0209 68° East 474 545 29,000  Level FlightAware
Mon 01:10:51 PM 34.8324 138.1245 68° East 473 544 29,000  Level FlightAware
Mon 01:11:32 PM 34.8680 138.2250 68° East 473 544 29,000  Level FlightAware
Mon 01:12:12 PM 34.9028 138.3233 68° East 472 543 29,000  Level FlightAware
Mon 01:12:52 PM 34.9376 138.4222 68° East 473 544 29,000  Level FlightAware
Mon 01:13:32 PM 34.9722 138.5207 68° East 474 545 29,000  Level FlightAware
Mon 01:14:12 PM 35.0062 138.6179 68° East 475 547 29,000  Level FlightAware
Mon 01:14:52 PM 35.0411 138.7178 68° East 475 547 29,000  Level FlightAware
Mon 01:15:12 PM 35.0588 138.7685 68° East 474 545 29,000  Level FlightAware
Mon 01:15:32 PM 35.0754 138.8164 68° East 474 545 29,000  Level FlightAware
Mon 01:16:12 PM 35.1097 138.9155 68° East 473 544 29,000  Level FlightAware
Mon 01:16:45 PM 35.1242 138.9573 67° East 474 545 29,000  Level FlightAware (EGKA / ESH)
Mon 01:17:31 PM 35.1725 139.0974 67° East 475 547 29,000  Level FlightAware (EGKA / ESH)
Mon 01:17:46 PM 35.1817 139.1240 67° East 474 545 29,000  Level FlightAware (RJTF)
Mon 01:18:01 PM 35.1961 139.1659 67° East 475 547 29,000  Level FlightAware (EGKA / ESH)
Mon 01:18:13 PM 35.2029 139.1860 67° East 474 545 29,000  Level FlightAware (RJTF)
Mon 01:18:32 PM 35.2242 139.2480 67° East 474 545 29,000  Level FlightAware (EGKA / ESH)
Mon 01:18:45 PM 35.2314 139.2691 67° East 474 545 29,000  Level FlightAware (RJTF)
Mon 01:19:12 PM 35.2575 139.3456 67° East 474 545 29,000  Level FlightAware (RJTF)
Mon 01:19:17 PM 35.2609 139.3556 67° East 474 545 29,000  Level FlightAware (EGKA / ESH)
Mon 01:19:47 PM 35.2856 139.4279 67° East 474 545 29,000  Level FlightAware (EGKA / ESH)
Mon 01:20:17 PM 35.3095 139.4981 67° East 473 544 29,000  Level FlightAware (RJTF)
Mon 01:20:18 PM 35.3125 139.5071 68° East 474 545 29,000  Level FlightAware (EGKA / ESH)
Mon 01:20:45 PM 35.3339 139.5699 67° East 473 544 29,000  Level FlightAware (RJTF)
Mon 01:20:48 PM 35.3388 139.5844 68° East 475 547 29,000  Level FlightAware (EGKA / ESH)
Mon 01:21:16 PM 35.3615 139.6514 67° East 475 547 29,000 136 Level FlightAware (RJTF)
Mon 01:21:32 PM 35.3756 139.6933 68° East 477 549 29,100 692 Climbing FlightAware (EGKA / ESH)
Mon 01:21:42 PM 35.3832 139.7158 67° East 476 548 29,300 1,548 Climbing FlightAware (RJTF)
Mon 01:22:03 PM 35.4015 139.7702 68° East 473 544 29,900 1,235 Climbing FlightAware (EGKA / ESH)
Mon 01:22:16 PM 35.4114 139.7997 67° East 471 542 30,000 200 Climbing FlightAware (RJTF)
Mon 01:22:33 PM 35.4256 139.8420 68° East 470 541 30,000  Level FlightAware (EGKA / ESH)
Mon 01:22:40 PM 35.4312 139.8588 67° East 470 541 30,000  Level FlightAware (RJTF)
Mon 01:23:03 PM 35.4513 139.9187 68° East 468 539 30,000  Level FlightAware (EGKA / ESH)
Mon 01:23:10 PM 35.4558 139.9317 67° East 467 537 30,000  Level FlightAware (RJTF)
Mon 01:23:47 PM 35.4866 140.0240 68° East 465 535 30,000  Level FlightAware (EGKA / ESH)
Mon 01:24:18 PM 35.5125 140.1017 68° East 464 534 30,000  Level FlightAware (EGKA / ESH)
Mon 01:24:53 PM 35.5454 140.2005 69° East 460 529 30,000  Level FlightAware
Mon 01:25:11 PM 35.5606 140.2462 69° East 461 531 30,000  Level FlightAware
Mon 01:25:31 PM 35.5759 140.2927 69° East 462 532 30,000  Level FlightAware
Mon 01:26:03 PM 35.5963 140.3546 68° East 466 536 30,000  Level FlightAware (EGKA / ESH)
Mon 01:26:11 PM 35.6085 140.3913 69° East 463 533 30,000  Level FlightAware
Mon 01:26:48 PM 35.6337 140.4677 68° East 467 537 30,000  Level FlightAware (EGKA / ESH)
Mon 01:27:12 PM 35.6585 140.5432 69° East 466 536 30,000  Level FlightAware
Mon 01:27:31 PM 35.6737 140.5896 69° East 466 536 30,000  Level FlightAware
Mon 01:28:12 PM 35.7062 140.6892 69° East 465 535 30,000  Level FlightAware
Mon 01:28:47 PM 35.7298 140.7616 68° East 467 537 30,000  Level FlightAware (EGKA / ESH)
Mon 01:29:18 PM 35.7537 140.8353 68° East 467 537 30,000  Level FlightAware (EGKA / ESH)
Mon 01:29:32 PM 35.7705 140.8868 69° East 463 533 30,000  Level FlightAware
Mon 01:30:02 PM 35.7899 140.9465 68° East 466 536 30,000  Level FlightAware (EGKA / ESH)
Mon 01:30:12 PM 35.8024 140.9853 69° East 463 533 30,000  Level FlightAware
Mon 01:30:32 PM 35.8189 141.0362 69° East 463 533 30,000  Level FlightAware
Mon 01:31:03 PM 35.8360 141.0894 69° East 467 537 30,000  Level FlightAware (EGKA / ESH)
Mon 01:31:48 PM 35.8739 141.2072 69° East 467 537 30,000  Level FlightAware (EGKA / ESH)
Mon 01:32:18 PM 35.8976 141.2813 69° East 465 535 30,000  Level FlightAware (EGKA / ESH)
Mon 01:32:32 PM 35.9134 141.3309 70° East 462 532 30,000  Level FlightAware
Mon 01:33:03 PM 35.9327 141.3911 69° East 465 535 30,000  Level FlightAware (EGKA / ESH)
Mon 01:33:12 PM 35.9450 141.4298 70° East 463 533 30,000  Level FlightAware
Mon 01:33:33 PM 35.9613 141.4810 70° East 463 533 30,000  Level FlightAware
Mon 01:34:17 PM 35.9918 141.5767 69° East 468 539 30,000  Level FlightAware (EGKA / ESH)
Mon 01:34:48 PM 36.0155 141.6518 69° East 472 543 30,000  Level FlightAware (EGKA / ESH)
Mon 01:35:18 PM 36.0389 141.7263 69° East 474 545 30,000  Level FlightAware (EGKA / ESH)
Mon 01:36:03 PM 36.0686 141.8204 69° East 476 548 30,000  Level FlightAware (EGKA / ESH)
Mon 01:36:33 PM 36.0978 141.9136 69° East 477 549 30,000  Level FlightAware (EGKA / ESH)
Mon 01:37:17 PM 36.1346 142.0313 69° East 480 552 30,000  Level FlightAware (EGKA / ESH)
Mon 01:37:57 PM 36.1507 142.0831 69° East 482 555 30,000  Level FlightAware (EGKA / ESH)
Mon 01:40:02 PM 36.2642 142.4501 69° East 486 559 30,000 104 Level FlightAware (EGKA / ESH)
Mon 01:41:47 PM 36.3502 142.7313 69° East 487 560 30,400 Climbing FlightAware (EGKA / ESH)
Mon 01:44:00 PM 36.5852 142.9835 41° Northeast  Level Estimated
Mon 01:45:00 PM 36.6910 143.0978 41° Northeast  Level Estimated
Mon 01:46:00 PM 36.7967 143.2124 41° Northeast  Level Estimated
Mon 01:47:00 PM 36.9023 143.3274 41° Northeast  Level Estimated
Mon 01:48:00 PM 37.0078 143.4426 41° Northeast  Level Estimated
Mon 01:49:00 PM 37.1132 143.5582 41° Northeast  Level Estimated
Mon 01:50:00 PM 37.2185 143.6741 41° Northeast  Level Estimated
Mon 01:51:00 PM 37.3236 143.7903 41° Northeast  Level Estimated
Mon 01:52:00 PM 37.4287 143.9068 41° Northeast  Level Estimated
Mon 01:53:00 PM 37.5336 144.0237 41° Northeast  Level Estimated
Mon 01:54:00 PM 37.6384 144.1409 42° Northeast  Level Estimated
Mon 01:55:00 PM 37.7431 144.2584 42° Northeast  Level Estimated
Mon 01:56:00 PM 37.8477 144.3763 42° Northeast  Level Estimated
Mon 01:57:00 PM 37.9522 144.4945 42° Northeast  Level Estimated
Mon 01:58:00 PM 38.0565 144.6130 42° Northeast  Level Estimated
Mon 01:59:00 PM 38.1607 144.7319 42° Northeast  Level Estimated
Mon 02:00:00 PM 38.2649 144.8511 42° Northeast  Level Estimated
Mon 02:01:00 PM 38.3688 144.9706 42° Northeast  Level Estimated
Mon 02:02:00 PM 38.4727 145.0905 42° Northeast  Level Estimated
Mon 02:03:00 PM 38.5764 145.2108 42° Northeast  Level Estimated
Mon 02:04:00 PM 38.6801 145.3314 42° Northeast  Level Estimated
Mon 02:05:00 PM 38.7836 145.4523 42° Northeast  Level Estimated
Mon 02:06:00 PM 38.8869 145.5736 42° Northeast  Level Estimated
Mon 02:07:00 PM 38.9902 145.6952 42° Northeast  Level Estimated
Mon 02:08:00 PM 39.0933 145.8172 43° Northeast  Level Estimated
Mon 02:09:00 PM 39.1963 145.9396 43° Northeast  Level Estimated
Mon 02:10:00 PM 39.2991 146.0623 43° Northeast  Level Estimated
Mon 02:11:00 PM 39.4019 146.1854 43° Northeast  Level Estimated
Mon 02:12:00 PM 39.5045 146.3088 43° Northeast  Level Estimated
Mon 02:13:00 PM 39.6069 146.4326 43° Northeast  Level Estimated
Mon 02:14:00 PM 39.7093 146.5568 43° Northeast  Level Estimated
Mon 02:15:00 PM 39.8115 146.6813 43° Northeast  Level Estimated
Mon 02:16:00 PM 39.9136 146.8062 43° Northeast  Level Estimated
Mon 02:17:00 PM 40.0155 146.9315 43° Northeast  Level Estimated
Mon 02:18:00 PM 40.1173 147.0572 43° Northeast  Level Estimated
Mon 02:19:00 PM 40.2190 147.1832 43° Northeast  Level Estimated
Mon 02:20:00 PM 40.3205 147.3096 43° Northeast  Level Estimated
Mon 02:21:00 PM 40.4219 147.4364 44° Northeast  Level Estimated
Mon 02:22:00 PM 40.5231 147.5636 44° Northeast  Level Estimated
Mon 02:23:00 PM 40.6243 147.6911 44° Northeast  Level Estimated
Mon 02:24:00 PM 40.7252 147.8191 44° Northeast  Level Estimated
Mon 02:25:00 PM 40.8261 147.9474 44° Northeast  Level Estimated
Mon 02:26:00 PM 40.9268 148.0761 44° Northeast  Level Estimated
Mon 02:27:00 PM 41.0273 148.2053 44° Northeast  Level Estimated
Mon 02:28:00 PM 41.1277 148.3348 44° Northeast  Level Estimated
Mon 02:29:00 PM 41.2280 148.4647 44° Northeast  Level Estimated
Mon 02:30:00 PM 41.3281 148.5950 44° Northeast  Level Estimated
Mon 02:31:00 PM 41.4280 148.7257 44° Northeast  Level Estimated
Mon 02:32:00 PM 41.5278 148.8568 44° Northeast  Level Estimated
Mon 02:33:00 PM 41.6275 148.9883 45° Northeast  Level Estimated
Mon 02:34:00 PM 41.7270 149.1202 45° Northeast  Level Estimated
Mon 02:35:00 PM 41.8264 149.2526 45° Northeast  Level Estimated
Mon 02:36:00 PM 41.9256 149.3853 45° Northeast  Level Estimated
Mon 02:37:00 PM 42.0246 149.5185 45° Northeast  Level Estimated
Mon 02:38:00 PM 42.1235 149.6520 45° Northeast  Level Estimated
Mon 02:39:00 PM 42.2223 149.7860 45° Northeast  Level Estimated
Mon 02:40:00 PM 42.3209 149.9204 45° Northeast  Level Estimated
Mon 02:41:00 PM 42.4193 150.0553 45° Northeast  Level Estimated
Mon 02:42:00 PM 42.5176 150.1905 45° Northeast  Level Estimated
Mon 02:43:00 PM 42.6157 150.3262 45° Northeast  Level Estimated
Mon 02:44:00 PM 42.7136 150.4623 46° Northeast  Level Estimated
Mon 02:45:00 PM 42.8114 150.5988 46° Northeast  Level Estimated
Mon 02:46:00 PM 42.9091 150.7358 46° Northeast  Level Estimated
Mon 02:47:00 PM 43.0065 150.8732 46° Northeast  Level Estimated
Mon 02:48:00 PM 43.1038 151.0110 46° Northeast  Level Estimated
Mon 02:49:00 PM 43.2010 151.1493 46° Northeast  Level Estimated
Mon 02:50:00 PM 43.2979 151.2880 46° Northeast  Level Estimated
Mon 02:51:00 PM 43.3947 151.4272 46° Northeast  Level Estimated
Mon 02:52:00 PM 43.4913 151.5668 46° Northeast  Level Estimated
Mon 02:53:00 PM 43.5878 151.7069 46° Northeast  Level Estimated
Mon 02:54:00 PM 43.6841 151.8474 47° Northeast  Level Estimated
Mon 02:55:00 PM 43.7802 151.9883 47° Northeast  Level Estimated
Mon 02:56:00 PM 43.8762 152.1297 47° Northeast  Level Estimated
Mon 02:57:00 PM 43.9719 152.2716 47° Northeast  Level Estimated
Mon 02:58:00 PM 44.0675 152.4139 47° Northeast  Level Estimated
Mon 02:59:00 PM 44.1629 152.5567 47° Northeast  Level Estimated
Mon 03:00:00 PM 44.2582 152.6999 47° Northeast  Level Estimated
Mon 03:01:00 PM 44.3532 152.8436 47° Northeast  Level Estimated
Mon 03:02:00 PM 44.4481 152.9878 47° Northeast  Level Estimated
Mon 03:03:00 PM 44.5428 153.1324 47° Northeast  Level Estimated
Mon 03:04:00 PM 44.6373 153.2776 48° Northeast  Level Estimated
Mon 03:05:00 PM 44.7316 153.4232 48° Northeast  Level Estimated
Mon 03:06:00 PM 44.8258 153.5692 48° Northeast  Level Estimated
Mon 03:07:00 PM 44.9197 153.7157 48° Northeast  Level Estimated
Mon 03:08:00 PM 45.0135 153.8628 48° Northeast  Level Estimated
Mon 03:09:00 PM 45.1071 154.0103 48° Northeast  Level Estimated
Mon 03:10:00 PM 45.2004 154.1582 48° Northeast  Level Estimated
Mon 03:11:00 PM 45.2936 154.3067 48° Northeast  Level Estimated
Mon 03:12:00 PM 45.3866 154.4557 48° Northeast  Level Estimated
Mon 03:13:00 PM 45.4794 154.6051 48° Northeast  Level Estimated
Mon 03:14:00 PM 45.5720 154.7551 49° Northeast  Level Estimated
Mon 03:15:00 PM 45.6645 154.9055 49° Northeast  Level Estimated
Mon 03:16:00 PM 45.7567 155.0564 49° Northeast  Level Estimated
Mon 03:17:00 PM 45.8487 155.2079 49° Northeast  Level Estimated
Mon 03:18:00 PM 45.9405 155.3598 49° Northeast  Level Estimated
Mon 03:19:00 PM 46.0321 155.5122 49° Northeast  Level Estimated
Mon 03:20:00 PM 46.1235 155.6652 49° Northeast  Level Estimated
Mon 03:21:00 PM 46.2147 155.8186 49° Northeast  Level Estimated
Mon 03:22:00 PM 46.3057 155.9726 49° Northeast  Level Estimated
Mon 03:23:00 PM 46.3965 156.1271 50° Northeast  Level Estimated
Mon 03:24:00 PM 46.4871 156.2820 50° Northeast  Level Estimated
Mon 03:25:00 PM 46.5775 156.4375 50° Northeast  Level Estimated
Mon 03:26:00 PM 46.6676 156.5936 50° Northeast  Level Estimated
Mon 03:27:00 PM 46.7576 156.7501 50° Northeast  Level Estimated
Mon 03:28:00 PM 46.8473 156.9072 50° Northeast  Level Estimated
Mon 03:29:00 PM 46.9369 157.0648 50° Northeast  Level Estimated
Mon 03:30:00 PM 47.0261 157.2229 50° Northeast  Level Estimated
Mon 03:31:00 PM 47.1152 157.3815 50° Northeast  Level Estimated
Mon 03:32:00 PM 47.2041 157.5407 51° Northeast  Level Estimated
Mon 03:33:00 PM 47.2927 157.7004 51° Northeast  Level Estimated
Mon 03:34:00 PM 47.3812 157.8607 51° Northeast  Level Estimated
Mon 03:35:00 PM 47.4694 158.0215 51° Northeast  Level Estimated
Mon 03:36:00 PM 47.5573 158.1828 51° Northeast  Level Estimated
Mon 03:37:00 PM 47.6451 158.3446 51° Northeast  Level Estimated
Mon 03:38:00 PM 47.7326 158.5070 51° Northeast  Level Estimated
Mon 03:39:00 PM 47.8199 158.6700 51° Northeast  Level Estimated
Mon 03:40:00 PM 47.9069 158.8335 52° Northeast  Level Estimated
Mon 03:41:00 PM 47.9938 158.9976 52° Northeast  Level Estimated
Mon 03:42:00 PM 48.0803 159.1622 52° Northeast  Level Estimated
Mon 03:43:00 PM 48.1667 159.3273 52° Northeast  Level Estimated
Mon 03:44:00 PM 48.2528 159.4931 52° Northeast  Level Estimated
Mon 03:45:00 PM 48.3387 159.6593 52° Northeast  Level Estimated
Mon 03:46:00 PM 48.4243 159.8262 52° Northeast  Level Estimated
Mon 03:47:00 PM 48.5097 159.9936 52° Northeast  Level Estimated
Mon 03:48:00 PM 48.5949 160.1615 52° Northeast  Level Estimated
Mon 03:49:00 PM 48.6798 160.3300 53° Northeast  Level Estimated
Mon 03:50:00 PM 48.7644 160.4991 53° Northeast  Level Estimated
Mon 03:51:00 PM 48.8488 160.6688 53° Northeast  Level Estimated
Mon 03:51:35 PM 44.3833 164.1333 67° East 517 595 31,000  Level Oakland Oceanic
Mon 04:03:32 PM 45.0333 166.3500 68° East 509 586 31,000  Level Oakland Oceanic
Mon 04:17:36 PM 45.7333 168.9167 70° East 505 581 31,000  Level Oakland Oceanic
Mon 04:23:21 PM 46.0000 170.0000 70° East 504 580 31,000  Level Oakland Oceanic
Mon 04:31:17 PM 46.3833 171.5500 71° East 505 581 31,000  Level Oakland Oceanic
Mon 04:45:10 PM 46.9667 174.2000 73° East 498 573 31,000  Level Oakland Oceanic
Mon 04:59:02 PM 47.4833 176.8667 75° East 492 566 31,000  Level Oakland Oceanic
Mon 05:12:54 PM 47.9333 179.6167 75° East 499 574 31,000 124 Level Oakland Oceanic
Mon 05:15:13 PM 48.0000 180.0000 69° East 514 592 33,000 144 Climbing Oakland Oceanic
Mon 05:26:46 PM 48.5333 -177.7500 71° East 522 601 33,000  Level Oakland Oceanic
Mon 05:40:39 PM 49.1333 -174.9333 73° East 528 608 33,000  Level Oakland Oceanic
Mon 05:55:09 PM 49.6833 -171.9833 75° East 530 610 33,000  Level Oakland Oceanic
Mon 06:03:37 PM 50.0000 -170.0000 69° East 560 644 33,000  Level Oakland Oceanic
Mon 06:08:23 PM 50.2667 -168.8833 69° East 565 650 33,000  Level Oakland Oceanic
Mon 06:22:15 PM 51.0000 -165.6333 72° East 568 654 33,000  Level Oakland Oceanic
Mon 06:36:39 PM 51.6333 -162.3333 75° East 557 641 33,000  Level Oakland Oceanic
Mon 06:45:52 PM 52.0000 -160.0000 86° East 555 639 33,000  Level Oakland Oceanic
Mon 06:50:20 PM 52.0333 -158.9667 87° East 552 635 33,000  Level Oakland Oceanic
Mon 07:03:52 PM 52.1000 -155.5667 89° East 551 634 33,000  Level Oakland Oceanic
Mon 07:17:45 PM 52.0667 -152.1667 92° East 547 629 33,000  Level Oakland Oceanic
Mon 07:26:53 PM 52.0000 -150.0000 95° East 556 640 33,000  Level Oakland Oceanic
Mon 07:31:34 PM 51.9167 -148.7500 96° East 556 640 33,000  Level Oakland Oceanic
Mon 07:45:27 PM 51.6500 -145.3667 99° East 547 629 33,000  Level Oakland Oceanic
Mon 07:59:19 PM 51.2833 -142.0333 102° East 557 641 33,000  Level Oakland Oceanic
Mon 08:07:58 PM 51.0000 -140.0000 101° East 554 638 33,000  Level Oakland Oceanic
Mon 08:13:11 PM 50.8333 -138.7000 102° East 562 647 33,000  Level Oakland Oceanic
Mon 08:27:04 PM 50.3667 -135.5167 104° East 538 619 33,000  Level Oakland Oceanic
Mon 08:32:27 PM 50.1667 -134.3333 105° East 533 613 33,000  Level Oakland Oceanic
Mon 08:35:10 PM 50.0333 -133.7500 90° East 450 518 33,000  Level Vancouver Center
Mon 08:38:40 PM 50.0000 -132.9833 98° East 530 610 33,000  Level Vancouver Center
Mon 08:39:00 PM 50.0025 -132.9191 90° East 533 613 33,000 200 Level FlightAware
Mon 08:39:40 PM 50.0000 -132.7500 90° East 530 610 33,200  Climbing Vancouver Center
Mon 08:40:00 PM 50.0030 -132.6786 90° East 533 613 33,000 1,700 Descending FlightAware
Mon 08:40:40 PM 50.0000 -132.5333 90° East 530 610 34,900 1,200 Climbing Vancouver Center
Mon 08:41:40 PM 50.0000 -132.3000 90° East 520 598 35,000 50 Climbing Vancouver Center
Mon 08:42:40 PM 50.0000 -132.0667 90° East 520 598 35,000  Level Vancouver Center
Mon 08:43:40 PM 50.0000 -131.8333 90° East 520 598 35,000  Level Vancouver Center
Mon 08:44:40 PM 49.9667 -131.6167 103° East 520 598 35,000  Level Vancouver Center
Mon 08:45:40 PM 49.9167 -131.4000 110° East 520 598 35,000  Level Vancouver Center
Mon 08:46:40 PM 49.8667 -131.1833 110° East 520 598 35,000  Level Vancouver Center
Mon 08:47:40 PM 49.8333 -130.9833 104° East 510 587 35,000  Level Vancouver Center
Mon 08:48:40 PM 49.8000 -130.7833 104° East 510 587 35,000  Level Vancouver Center
Mon 08:49:40 PM 49.7500 -130.5500 108° East 520 598 35,000  Level Vancouver Center
Mon 08:50:40 PM 49.7000 -130.3667 113° Southeast 520 598 35,000  Level Vancouver Center
Mon 08:51:40 PM 49.6500 -130.1167 107° East 520 598 35,000  Level Vancouver Center
Mon 08:52:40 PM 49.6167 -129.9333 106° East 520 598 35,000  Level Vancouver Center
Mon 08:53:40 PM 49.5500 -129.7167 115° Southeast 520 598 35,000  Level Vancouver Center
Mon 08:54:40 PM 49.5167 -129.5167 104° East 520 598 35,000  Level Vancouver Center
Mon 08:55:40 PM 49.4833 -129.3000 103° East 510 587 35,000  Level Vancouver Center
Mon 08:56:40 PM 49.4167 -129.0833 115° Southeast 520 598 35,000  Level Vancouver Center
Mon 08:57:40 PM 49.3833 -128.9000 106° East 510 587 35,000  Level Vancouver Center
Mon 08:58:40 PM 49.3167 -128.6667 114° Southeast 520 598 35,000  Level Vancouver Center
Mon 08:59:40 PM 49.2833 -128.4833 106° East 510 587 35,000  Level Vancouver Center
Mon 09:00:40 PM 49.2167 -128.2667 115° Southeast 520 598 35,000  Level Vancouver Center
Mon 09:01:40 PM 49.1833 -128.0667 104° East 510 587 35,000  Level Vancouver Center
Mon 09:06:46 PM 48.9348 -127.0062 110° East 507 583 35,000  Level FlightAware (KPFC)
Mon 09:07:41 PM 48.8885 -126.8238 110° East 504 580 35,000  Level FlightAware (KPFC)
Mon 09:07:47 PM 48.8826 -126.8008 111° Southeast 506 582 35,000  Level FlightAware (CYVR)
Mon 09:09:05 PM 48.8173 -126.5472 110° East 502 578 35,000  Level FlightAware (KPFC)
Mon 09:09:59 PM 48.7716 -126.3710 112° Southeast 505 581 35,000  Level FlightAware (KPFC)
Mon 09:10:48 PM 48.7293 -126.2090 111° Southeast 502 578 35,000  Level FlightAware (KPFC)
Mon 09:11:29 PM 48.6945 -126.0767 111° Southeast 501 577 35,000  Level FlightAware (KPFC)
Mon 09:12:00 PM 48.6673 -125.9737 111° Southeast 501 577 35,000  Level FlightAware (KPFC)
Mon 09:12:35 PM 48.6372 -125.8605 112° Southeast 503 579 35,000  Level FlightAware (KPFC)
Mon 09:13:15 PM 48.6026 -125.7310 111° Southeast 501 577 35,000  Level FlightAware (KPFC)
Mon 09:13:47 PM 48.5743 -125.6256 112° Southeast 505 581 35,000  Level FlightAware (KPFC)
Mon 09:14:51 PM 48.5180 -125.4172 112° Southeast 504 580 35,000  Level FlightAware (KPFC)
Mon 09:15:32 PM 48.4925 -125.3233 112° Southeast 501 577 35,000  Level FlightAware (CYVR)
Mon 09:15:47 PM 48.4686 -125.2360 112° Southeast 501 577 35,000  Level FlightAware
Mon 09:16:07 PM 48.4512 -125.1722 112° Southeast 501 577 35,000  Level FlightAware (CYVR)
Mon 09:16:34 PM 48.4272 -125.0850 112° Southeast 501 577 35,000  Level FlightAware
Mon 09:16:39 PM 48.4353 -125.1143 113° Southeast 501 577 35,000  Level FlightAware (CYVR)
Mon 09:17:06 PM 48.3992 -124.9830 113° Southeast 500 575 35,000  Level FlightAware
Mon 09:17:18 PM 48.3886 -124.9450 113° Southeast 501 577 35,000  Level FlightAware (KPFC)
Mon 09:17:40 PM 48.3688 -124.8740 113° Southeast 500 575 35,000  Level FlightAware
Mon 09:17:52 PM 48.3583 -124.8355 113° Southeast 500 575 35,000  Level FlightAware (CYVR)
Mon 09:18:11 PM 48.3408 -124.7730 113° Southeast 500 575 35,000  Level FlightAware
Mon 09:18:29 PM 48.3247 -124.7155 113° Southeast 500 575 35,000  Level FlightAware (KPFC)
Mon 09:18:41 PM 48.3136 -124.6770 114° Southeast 499 574 35,000  Level FlightAware
Mon 09:19:12 PM 48.2821 -124.5830 119° Southeast 496 571 35,000  Level FlightAware
Mon 09:19:13 PM 48.2808 -124.5798 119° Southeast 496 571 35,000  Level FlightAware (CYVR)
Mon 09:19:45 PM 48.2459 -124.4830 118° Southeast 495 570 35,000  Level FlightAware
Mon 09:20:16 PM 48.2127 -124.3900 118° Southeast 494 568 35,000  Level FlightAware
Mon 09:20:18 PM 48.2106 -124.3845 118° Southeast 494 568 35,000  Level FlightAware (CYVR)
Mon 09:20:46 PM 48.1798 -124.2990 118° Southeast 494 568 35,000  Level FlightAware
Mon 09:20:48 PM 48.1782 -124.2948 118° Southeast 494 568 35,000  Level FlightAware (CYVR)
Mon 09:21:16 PM 48.1469 -124.2090 119° Southeast 492 566 35,000  Level FlightAware
Mon 09:21:18 PM 48.1447 -124.2026 119° Southeast 492 566 35,000  Level FlightAware (CYVR)
Mon 09:21:46 PM 48.1143 -124.1190 119° Southeast 489 563 35,000  Level FlightAware
Mon 09:21:48 PM 48.1123 -124.1135 119° Southeast 489 563 35,000  Level FlightAware (CYVR)
Mon 09:21:58 PM 48.1018 -124.0848 119° Southeast 488 562 35,000  Level FlightAware (CYVR)
Mon 09:22:16 PM 48.0819 -124.0300 119° Southeast 488 562 35,000  Level FlightAware
Mon 09:22:30 PM 48.0677 -123.9913 119° Southeast 488 562 35,000  Level FlightAware (CYVR)
Mon 09:22:47 PM 48.0488 -123.9400 119° Southeast 489 563 35,000  Level FlightAware
Mon 09:23:09 PM 48.0288 -123.8851 119° Southeast 489 563 35,000  Level FlightAware (CYVR)
Mon 09:23:18 PM 48.0157 -123.8500 119° Southeast 489 563 35,000  Level FlightAware
Mon 09:23:43 PM 47.9882 -123.7748 118° Southeast 485 558 35,000  Level FlightAware (KPFC)
Mon 09:23:48 PM 47.9829 -123.7600 119° Southeast 490 564 35,000  Level FlightAware
Mon 09:24:18 PM 47.9499 -123.6710 119° Southeast 490 564 35,000  Level FlightAware
Mon 09:24:21 PM 47.9467 -123.6625 119° Southeast 491 565 35,000  Level FlightAware (CYVR)
Mon 09:24:52 PM 47.9130 -123.5719 119° Southeast 492 566 35,000  Level FlightAware (CYVR)
Mon 09:24:53 PM 47.9108 -123.5660 119° Southeast 491 565 35,000  Level FlightAware
Mon 09:25:03 PM 47.8997 -123.5362 118° Southeast 488 562 35,000  Level FlightAware (KPFC)
Mon 09:25:23 PM 47.8778 -123.4770 119° Southeast 491 565 35,000  Level FlightAware
Mon 09:25:54 PM 47.8445 -123.3880 119° Southeast 491 565 35,000  Level FlightAware
Mon 09:25:57 PM 47.8418 -123.3809 119° Southeast 492 566 35,000  Level FlightAware (CYVR)
Mon 09:26:25 PM 47.8094 -123.2950 119° Southeast 491 565 35,000  Level FlightAware
Mon 09:26:29 PM 47.8056 -123.2847 119° Southeast 490 564 35,000  Level FlightAware (KPFC)
Mon 09:26:55 PM 47.7762 -123.2070 119° Southeast 489 563 35,000  Level FlightAware
Mon 09:27:01 PM 47.7700 -123.1903 119° Southeast 489 563 35,000  Level FlightAware (CYVR)
Mon 09:27:26 PM 47.7429 -123.1180 119° Southeast 489 563 35,000  Level FlightAware
Mon 09:27:32 PM 47.7359 -123.1000 119° Southeast 490 564 35,000  Level FlightAware (CYVR)
Mon 09:27:57 PM 47.7085 -123.0280 119° Southeast 491 565 35,000  Level FlightAware
Mon 09:28:02 PM 47.7023 -123.0114 119° Southeast 491 565 35,000  Level FlightAware (CYVR)
Mon 09:28:27 PM 47.6749 -122.9400 119° Southeast 493 567 35,000  Level FlightAware
Mon 09:28:33 PM 47.6686 -122.9228 119° Southeast 493 567 35,000  Level FlightAware (CYVR)
Mon 09:29:00 PM 47.6372 -122.8400 119° Southeast 490 564 35,000  Level FlightAware
Mon 09:29:09 PM 47.6270 -122.8140 119° Southeast 489 563 35,000  Level FlightAware (KPFC)
Mon 09:29:31 PM 47.6033 -122.7520 120° Southeast 489 563 35,000  Level FlightAware
Mon 09:29:49 PM 47.5822 -122.6971 120° Southeast 489 563 35,000  Level FlightAware (KPFC)
Mon 09:30:01 PM 47.5695 -122.6640 120° Southeast 489 563 35,000  Level FlightAware
Mon 09:30:24 PM 47.5435 -122.5970 120° Southeast 489 563 35,000  Level FlightAware
Mon 09:30:32 PM 47.5340 -122.5740 124° Southeast 487 560 35,000  Level FlightAware
Mon 09:30:58 PM 47.5007 -122.5127 130° Southeast 483 556 35,000  Level FlightAware
Mon 09:31:02 PM 47.4914 -122.4970 130° Southeast 484 557 35,000  Level FlightAware
Mon 09:31:30 PM 47.4527 -122.4288 130° Southeast 484 557 35,000  Level FlightAware
Mon 09:31:34 PM 47.4458 -122.4160 129° Southeast 485 558 35,000  Level FlightAware
Mon 09:32:05 PM 47.4019 -122.3370 129° Southeast 483 556 35,000  Level FlightAware
Mon 09:32:36 PM 47.3589 -122.2590 129° Southeast 483 556 35,000  Level FlightAware
Mon 09:33:06 PM 47.3161 -122.1800 128° Southeast 483 556 35,000  Level FlightAware
Mon 09:33:08 PM 47.3134 -122.1755 128° Southeast 483 556 35,000  Level FlightAware (CYVR)
Mon 09:33:32 PM 47.2803 -122.1130 128° Southeast 484 557 35,000  Level FlightAware
Mon 09:33:41 PM 47.2680 -122.0915 130° Southeast 483 556 35,000  Level FlightAware (CYVR)
Mon 09:34:03 PM 47.2357 -122.0390 133° Southeast 479 551 35,000  Level FlightAware
Mon 09:34:25 PM 47.2022 -121.9853 132° Southeast 480 552 35,000  Level FlightAware (CYVR)
Mon 09:34:33 PM 47.1906 -121.9660 132° Southeast 480 552 35,000  Level FlightAware
Mon 09:34:56 PM 47.1562 -121.9104 132° Southeast 481 554 35,000  Level FlightAware (CYVR)
Mon 09:35:03 PM 47.1457 -121.8930 132° Southeast 480 552 35,000  Level FlightAware
Mon 09:35:26 PM 47.1112 -121.8375 132° Southeast 481 554 35,000  Level FlightAware
Mon 09:35:34 PM 47.1000 -121.8190 132° Southeast 480 552 35,000  Level FlightAware
Mon 09:35:58 PM 47.0642 -121.7615 132° Southeast 481 554 35,000  Level FlightAware
Mon 09:36:04 PM 47.0538 -121.7450 132° Southeast 481 554 35,000  Level FlightAware
Mon 09:36:35 PM 47.0085 -121.6710 132° Southeast 482 555 35,000  Level FlightAware
Mon 09:36:36 PM 47.0319 -121.7094 132° Southeast 482 555 35,000  Level FlightAware
Mon 09:37:05 PM 46.9638 -121.5990 132° Southeast 482 555 35,000  Level FlightAware
Mon 09:37:08 PM 46.9585 -121.5904 132° Southeast 482 555 35,000  Level FlightAware (KPFC)
Mon 09:37:36 PM 46.9173 -121.5230 132° Southeast 482 555 35,000  Level FlightAware
Mon 09:37:42 PM 46.9086 -121.5091 132° Southeast 481 554 35,000  Level FlightAware
Mon 09:38:06 PM 46.8722 -121.4500 132° Southeast 480 552 35,000  Level FlightAware
Mon 09:38:21 PM 46.8511 -121.4151 132° Southeast 480 552 35,000  Level FlightAware (KPFC)
Mon 09:38:36 PM 46.8278 -121.3770 132° Southeast 479 551 35,000  Level FlightAware
Mon 09:38:53 PM 46.8040 -121.3386 132° Southeast 479 551 35,000  Level FlightAware
Mon 09:39:07 PM 46.7831 -121.3050 132° Southeast 479 551 35,000  Level FlightAware
Mon 09:39:37 PM 46.7387 -121.2320 132° Southeast 477 549 35,000  Level FlightAware
Mon 09:40:11 PM 46.6888 -121.1510 132° Southeast 477 549 35,000  Level FlightAware
Mon 09:40:17 PM 46.6788 -121.1350 131° Southeast 472 543 35,000  Level FlightAware (KPFC)
Mon 09:40:41 PM 46.6440 -121.0790 132° Southeast 478 550 35,000  Level FlightAware
Mon 09:41:00 PM 46.6160 -121.0338 132° Southeast 479 551 35,000  Level FlightAware
Mon 09:41:11 PM 46.5991 -121.0070 132° Southeast 481 554 35,000  Level FlightAware
Mon 09:41:41 PM 46.5550 -120.9357 132° Southeast 481 554 35,000  Level FlightAware (KPFC)
Mon 09:41:44 PM 46.5507 -120.9290 132° Southeast 481 554 35,000  Level FlightAware
Mon 09:42:19 PM 46.4977 -120.8444 132° Southeast 483 556 35,000  Level FlightAware (KPFC)
Mon 09:43:02 PM 46.4334 -120.7426 133° Southeast 481 554 35,000  Level FlightAware (KPFC)
Mon 09:43:41 PM 46.3744 -120.6499 132° Southeast 477 549 35,000  Level FlightAware (KPFC)
Mon 09:44:19 PM 46.3180 -120.5570 129° Southeast 491 565 35,000  Level FlightAware
Mon 09:45:00 PM 46.2687 -120.4397 115° Southeast 503 579 35,000  Level FlightAware (KPFC)
Mon 09:45:33 PM 46.2363 -120.3405 115° Southeast 500 575 35,000  Level FlightAware (KPFC)
Mon 09:46:07 PM 46.2025 -120.2373 115° Southeast 500 575 35,000  Level FlightAware (KPFC)
Mon 09:47:09 PM 46.1408 -120.0506 116° Southeast 494 568 35,000  Level FlightAware (KPFC)
Mon 09:47:58 PM 46.0924 -119.9055 116° Southeast 495 570 35,000  Level FlightAware (KPFC)
Mon 09:48:13 PM 46.0791 -119.8657 115° Southeast 495 570 35,000  Level FlightAware (KBOI)
Mon 09:48:43 PM 46.0498 -119.7784 115° Southeast 496 571 35,000  Level FlightAware (KBOI)
Mon 09:49:13 PM 46.0185 -119.6852 115° Southeast 496 571 35,000  Level FlightAware (KBOI)
Mon 09:49:44 PM 45.9884 -119.5960 115° Southeast 494 568 35,000  Level FlightAware (KBOI)
Mon 09:50:13 PM 45.9586 -119.5081 115° Southeast 495 570 35,000  Level FlightAware (KBOI)
Mon 09:50:43 PM 45.9298 -119.4231 115° Southeast 495 570 35,000  Level FlightAware (KBOI)
Mon 09:51:13 PM 45.8983 -119.3306 116° Southeast 496 571 35,000  Level FlightAware (KBOI)
Mon 09:51:39 PM 45.8729 -119.2561 116° Southeast 496 571 35,000  Level FlightAware (KBOI)
Mon 09:52:13 PM 45.8376 -119.1535 116° Southeast 495 570 35,000  Level FlightAware (KBOI)
Mon 09:52:43 PM 45.8072 -119.0650 116° Southeast 495 570 35,000  Level FlightAware (KBOI)
Mon 09:53:13 PM 45.7768 -118.9771 116° Southeast 495 570 35,000  Level FlightAware (KBOI)
Mon 09:53:43 PM 45.7466 -118.8899 116° Southeast 495 570 35,000  Level FlightAware (KBOI)
Mon 09:54:13 PM 45.7160 -118.8020 116° Southeast 493 567 35,000  Level FlightAware (KBOI)
Mon 09:54:43 PM 45.6859 -118.7156 116° Southeast 493 567 35,000  Level FlightAware (KBOI)
Mon 09:55:13 PM 45.6547 -118.6267 116° Southeast 492 566 35,000  Level FlightAware (KBOI)
Mon 09:55:43 PM 45.6251 -118.5420 116° Southeast 492 566 35,000  Level FlightAware (KBOI)
Mon 09:56:13 PM 45.5961 -118.4600 116° Southeast 492 566 35,000  Level FlightAware (KBOI)
Mon 09:56:43 PM 45.5732 -118.3950 116° Southeast 492 566 35,000  Level FlightAware (KBOI)
Mon 09:57:13 PM 45.5454 -118.3166 116° Southeast 494 568 35,000  Level FlightAware (KBOI)
Mon 09:57:42 PM 45.5013 -118.1926 116° Southeast 496 571 35,000  Level FlightAware (KBOI)
Mon 09:58:12 PM 45.4699 -118.1045 116° Southeast 498 573 35,000  Level FlightAware (KBOI)
Mon 09:58:43 PM 45.4389 -118.0179 116° Southeast 499 574 35,000  Level FlightAware (KBOI)
Mon 09:59:14 PM 45.4063 -117.9272 117° Southeast 498 573 35,000  Level FlightAware (KBOI)
Mon 09:59:42 PM 45.3760 -117.8429 117° Southeast 498 573 35,000  Level FlightAware (KBOI)
Mon 10:00:13 PM 45.3431 -117.7523 117° Southeast 499 574 35,000  Level FlightAware (KBOI)
Mon 10:00:43 PM 45.3126 -117.6682 117° Southeast 498 573 35,000  Level FlightAware (KBOI)
Mon 10:01:13 PM 45.2799 -117.5782 117° Southeast 496 571 35,000  Level FlightAware (KBOI)
Mon 10:01:43 PM 45.2482 -117.4910 117° Southeast 493 567 35,000  Level FlightAware (KBOI)
Mon 10:02:13 PM 45.2180 -117.4087 117° Southeast 490 564 35,000  Level FlightAware (KBOI)
Mon 10:02:43 PM 45.1860 -117.3217 117° Southeast 487 560 35,000  Level FlightAware (KBOI)
Mon 10:03:13 PM 45.1545 -117.2363 117° Southeast 487 560 35,000  Level FlightAware (KBOI)
Mon 10:03:43 PM 45.1234 -117.1521 117° Southeast 486 559 35,000  Level FlightAware (KBOI)
Mon 10:04:13 PM 45.0917 -117.0665 117° Southeast 486 559 35,000  Level FlightAware (KBOI)
Mon 10:04:43 PM 45.0606 -116.9830 117° Southeast 488 562 35,000  Level FlightAware (KBOI)
Mon 10:05:13 PM 45.0287 -116.8976 117° Southeast 490 564 35,000  Level FlightAware (KBOI)
Mon 10:05:43 PM 44.9971 -116.8130 117° Southeast 489 563 35,000  Level FlightAware (KBOI)
Mon 10:06:13 PM 44.9651 -116.7279 117° Southeast 488 562 35,000  Level FlightAware (KBOI)
Mon 10:06:43 PM 44.9338 -116.6447 117° Southeast 488 562 35,000  Level FlightAware (KBOI)
Mon 10:07:13 PM 44.9021 -116.5606 118° Southeast 487 560 35,000  Level FlightAware (KBOI)
Mon 10:07:43 PM 44.8737 -116.4857 118° Southeast 487 560 35,000  Level FlightAware (KBOI)
Mon 10:08:13 PM 44.8377 -116.3910 118° Southeast 487 560 35,000  Level FlightAware (KBOI)
Mon 10:08:43 PM 44.8065 -116.3093 118° Southeast 487 560 35,000  Level FlightAware (KBOI)
Mon 10:09:13 PM 44.7756 -116.2243 114° Southeast 489 563 35,000  Level FlightAware (KBOI)
Mon 10:09:44 PM 44.7499 -116.1319 108° East 491 565 35,000  Level FlightAware (KBOI)
Mon 10:10:13 PM 44.7289 -116.0422 107° East 491 565 35,000  Level FlightAware (KBOI)
Mon 10:10:41 PM 44.7132 -115.9731 107° East 491 565 35,000  Level FlightAware (KBOI)
Mon 10:11:13 PM 44.6870 -115.8596 108° East 491 565 35,000  Level FlightAware (KBOI)
Mon 10:11:43 PM 44.6660 -115.7694 108° East 494 568 35,000  Level FlightAware (KBOI)
Mon 10:12:14 PM 44.6444 -115.6773 108° East 494 568 35,000  Level FlightAware (KBOI)
Mon 10:12:43 PM 44.6237 -115.5896 108° East 495 570 35,000  Level FlightAware (KBOI)
Mon 10:13:13 PM 44.6017 -115.4965 108° East 493 567 35,000  Level FlightAware (KBOI)
Mon 10:13:43 PM 44.5803 -115.4065 108° East 492 566 35,000  Level FlightAware (KBOI)
Mon 10:14:13 PM 44.5584 -115.3148 108° East 491 565 35,000  Level FlightAware (KBOI)
Mon 10:14:43 PM 44.5364 -115.2231 108° East 490 564 35,000  Level FlightAware (KBOI)
Mon 10:15:13 PM 44.5154 -115.1358 108° East 488 562 35,000  Level FlightAware (KBOI)
Mon 10:15:43 PM 44.4932 -115.0441 108° East 489 563 35,000  Level FlightAware (KBOI)
Mon 10:16:14 PM 44.4713 -114.9534 108° East 489 563 35,000  Level FlightAware (KBOI)
Mon 10:16:43 PM 44.4511 -114.8702 108° East 489 563 35,000  Level FlightAware (KBOI)
Mon 10:17:13 PM 44.4282 -114.7764 108° East 486 559 35,000  Level FlightAware (KBOI)
Mon 10:17:44 PM 44.4056 -114.6843 108° East 484 557 35,000  Level FlightAware (KBOI)
Mon 10:18:13 PM 44.3840 -114.5965 108° East 485 558 35,000  Level FlightAware (KBOI)
Mon 10:18:40 PM 44.3667 -114.5264 108° East 485 558 35,000  Level FlightAware (KBOI)
Mon 10:19:43 PM 44.3178 -114.3298 109° East 487 560 35,000  Level FlightAware (KBOI)
Mon 10:20:07 PM 44.3019 -114.2663 109° East 487 560 35,000  Level FlightAware (KBOI)
Mon 10:21:22 PM 44.2492 -114.0547 109° East 488 562 35,000  Level Salt Center
Mon 10:22:24 PM 44.2008 -113.8694 110° East 488 562 35,000  Level Salt Center
Mon 10:23:26 PM 44.1561 -113.6914 109° East 488 562 35,000  Level Salt Center
Mon 10:24:27 PM 44.1111 -113.5136 109° East 488 562 35,000  Level Salt Center
Mon 10:25:29 PM 44.0639 -113.3353 110° East 489 563 35,000  Level Salt Center
Mon 10:26:31 PM 44.0172 -113.1558 110° East 492 566 35,000  Level Salt Center
Mon 10:27:33 PM 43.9600 -112.9403 110° East 497 572 35,000  Level Salt Center
Mon 10:28:35 PM 43.9131 -112.7625 110° East 497 572 35,000  Level Salt Center
Mon 10:29:37 PM 43.8656 -112.5864 110° East 495 570 35,000  Level Salt Center
Mon 10:30:39 PM 43.8181 -112.4081 110° East 495 570 35,000  Level Salt Center
Mon 10:31:41 PM 43.7694 -112.2308 111° Southeast 495 570 35,000  Level Salt Center
Mon 10:32:43 PM 43.7208 -112.0539 111° Southeast 495 570 35,000  Level Salt Center
Mon 10:33:45 PM 43.6619 -111.8400 111° Southeast 497 572 35,000  Level Salt Center
Mon 10:34:47 PM 43.6119 -111.6597 111° Southeast 503 579 35,000  Level Salt Center
Mon 10:35:48 PM 43.5617 -111.4803 111° Southeast 503 579 35,000  Level Salt Center
Mon 10:36:50 PM 43.5108 -111.2981 111° Southeast 510 587 35,000  Level Salt Center
Mon 10:37:52 PM 43.4583 -111.1189 112° Southeast 510 587 35,000  Level Salt Center
Mon 10:38:54 PM 43.3953 -110.9011 112° Southeast 511 588 35,000  Level Salt Center
Mon 10:39:56 PM 43.3442 -110.7194 111° Southeast 512 589 35,000  Level Salt Center
Mon 10:40:58 PM 43.2931 -110.5442 112° Southeast 505 581 35,000  Level Salt Center
Mon 10:42:00 PM 43.2411 -110.3625 111° Southeast 506 582 35,000  Level Salt Center
Mon 10:43:02 PM 43.1875 -110.1858 113° Southeast 506 582 35,000  Level Salt Center
Mon 10:44:04 PM 43.1350 -110.0061 112° Southeast 506 582 35,000  Level Salt Center
Mon 10:45:05 PM 43.0753 -109.8117 113° Southeast 515 593 35,000  Level Salt Center
Mon 10:46:07 PM 43.0194 -109.6297 113° Southeast 516 594 35,000  Level Salt Center
Mon 10:47:09 PM 42.9556 -109.4153 112° Southeast 524 603 35,000  Level Salt Center
Mon 10:48:11 PM 42.9017 -109.2386 113° Southeast 525 604 35,000  Level Salt Center
Mon 10:49:13 PM 42.8381 -109.0333 113° Southeast 525 604 35,000  Level Salt Center
Mon 10:50:15 PM 42.7844 -108.8578 113° Southeast 526 605 35,000  Level Salt Center
Mon 10:51:16 PM 42.7289 -108.6819 113° Southeast 526 605 35,000  Level Salt Center
Mon 10:52:18 PM 42.6642 -108.4758 113° Southeast 526 605 35,000  Level Salt Center
Mon 10:53:20 PM 42.6081 -108.3000 113° Southeast 527 606 35,000  Level Salt Center
Mon 10:54:22 PM 42.5414 -108.0928 114° Southeast 532 612 35,000  Level Salt Center
Mon 10:55:24 PM 42.4872 -107.9183 113° Southeast 528 608 35,000  Level Salt Center
Mon 10:56:25 PM 42.4178 -107.7106 114° Southeast 537 618 35,000  Level Salt Center
Mon 10:57:27 PM 42.3594 -107.5336 114° Southeast 538 619 35,000  Level Salt Center
Mon 11:03:01 PM 42.0175 -106.5051 115° Southeast 527 606 35,000  Level FlightAware (KEIK)
Mon 11:03:53 PM 41.9637 -106.3472 115° Southeast 524 603 35,000  Level FlightAware (KEIK)
Mon 11:04:41 PM 41.9147 -106.2046 115° Southeast 522 601 35,000  Level FlightAware (KEIK)
Mon 11:05:11 PM 41.8841 -106.1161 115° Southeast 523 602 35,000  Level FlightAware (KEIK)
Mon 11:05:43 PM 41.8564 -106.0297 109° East 529 609 35,000  Level FlightAware (KEIK)
Mon 11:06:21 PM 41.8323 -105.8997 100° East 538 619 35,000  Level FlightAware (KEIK)
Mon 11:07:22 PM 41.8075 -105.6984 99° East 538 619 35,000  Level FlightAware (KEIK)
Mon 11:07:54 PM 41.7962 -105.6055 99° East 541 623 35,000  Level FlightAware (KEIK)
Mon 11:08:55 PM 41.7712 -105.4051 100° East 542 624 35,000  Level FlightAware (KEIK)
Mon 11:09:59 PM 41.7433 -105.1884 100° East 536 617 35,000  Level FlightAware (KEIK)
Mon 11:10:29 PM 41.7296 -105.0838 100° East 536 617 35,000  Level FlightAware (KEIK)
Mon 11:11:22 PM 41.7068 -104.9104 100° East 539 620 35,000  Level FlightAware (KEIK)
Mon 11:11:53 PM 41.6934 -104.8090 100° East 539 620 35,000  Level FlightAware (KEIK)
Mon 11:12:27 PM 41.6815 -104.7201 100° East 537 618 35,000  Level FlightAware
Mon 11:13:18 PM 41.6581 -104.5460 100° East 539 620 35,000  Level FlightAware
Mon 11:13:55 PM 41.6394 -104.4089 100° East 539 620 35,000  Level FlightAware (KEIK)
Mon 11:14:29 PM 41.6244 -104.2985 100° East 539 620 35,000  Level FlightAware (KEIK)
Mon 11:15:17 PM 41.6027 -104.1418 101° East 538 619 35,000  Level FlightAware
Mon 11:15:56 PM 41.5850 -104.0144 101° East 538 619 35,000  Level FlightAware
Mon 11:16:30 PM 41.5695 -103.9040 101° East 537 618 35,000  Level FlightAware (KEIK)
Mon 11:17:10 PM 41.5535 -103.7912 101° East 537 618 35,000  Level FlightAware (KEIK)
Mon 11:18:00 PM 41.5274 -103.6094 101° East 537 618 35,000  Level FlightAware (KEIK)
Mon 11:18:30 PM 41.5137 -103.5142 101° East 537 618 35,000  Level FlightAware (KEIK)
Mon 11:19:01 PM 41.4991 -103.4143 101° East 538 619 35,000  Level FlightAware (KEIK)
Mon 11:19:32 PM 41.4851 -103.3181 101° East 539 620 35,000  Level FlightAware (KEIK)
Mon 11:20:22 PM 41.4632 -103.1697 101° East 538 619 35,000  Level FlightAware (KEIK)
Mon 11:20:52 PM 41.4460 -103.0536 101° East 539 620 35,000  Level FlightAware (KEIK)
Mon 11:21:32 PM 41.4287 -102.9381 101° East 539 620 35,000  Level FlightAware (KEIK)
Mon 11:22:11 PM 41.4073 -102.7959 101° East 540 621 35,000  Level FlightAware (KEIK)
Mon 11:22:41 PM 41.3934 -102.7044 101° East 541 623 35,000  Level FlightAware (KEIK)
Mon 11:23:43 PM 41.3612 -102.4958 102° East 543 625 35,000  Level FlightAware (KEIK)
Mon 11:25:37 PM 41.3034 -102.1243 102° East 545 627 35,000  Level FlightAware (KEIK)
Mon 11:27:51 PM 41.2329 -101.6834 102° East 545 627 35,000  Level FlightAware (KEIK)
Mon 11:31:02 PM 41.1300 -101.0605 102° East 545 627 35,000  Level FlightAware (KEIK)
Mon 11:31:37 PM 41.1110 -100.9476 103° East 544 626 35,000  Level FlightAware (KEIK)
Mon 11:32:34 PM 41.0798 -100.7635 103° East 538 619 35,000  Level FlightAware (KEIK)
Mon 11:33:05 PM 41.0635 -100.6685 103° East 537 618 35,000  Level FlightAware (KEIK)
Mon 11:34:25 PM 41.0206 -100.4147 103° East 540 621 35,000  Level Denver Center
Mon 11:35:27 PM 40.9881 -100.2289 103° East 540 621 35,000  Level Denver Center
Mon 11:36:28 PM 40.9542 -100.0458 104° East 538 619 35,000  Level Denver Center
Mon 11:37:29 PM 40.9156 -99.8294 103° East 538 619 35,000  Level Denver Center
Mon 11:38:31 PM 40.8847 -99.6639 104° East 538 619 35,000  Level Denver Center
Mon 11:39:08 PM 40.8581 -99.5131 103° East 538 619 35,000  Level Minneapolis Center
Mon 11:40:09 PM 40.8228 -99.3222 104° East 538 619 35,000  Level Minneapolis Center
Mon 11:41:10 PM 40.7867 -99.1317 104° East 538 619 35,000  Level Minneapolis Center
Mon 11:42:11 PM 40.7544 -98.9597 104° East 539 620 35,000  Level Minneapolis Center
Mon 11:43:12 PM 40.7147 -98.7514 104° East 539 620 35,000  Level Minneapolis Center
Mon 11:44:13 PM 40.6786 -98.5600 104° East 540 621 35,000  Level Minneapolis Center
Mon 11:45:14 PM 40.6419 -98.3714 104° East 540 621 35,000  Level Minneapolis Center
Mon 11:46:15 PM 40.6050 -98.1814 104° East 540 621 35,000  Level Minneapolis Center
Mon 11:47:16 PM 40.5681 -97.9914 104° East 540 621 35,000 272 Level Minneapolis Center
Mon 11:53:36 PM 40.3149 -96.7450 105° East 533 613 37,000 281 Climbing FlightAware
Mon 11:54:23 PM 40.2831 -96.6464 105° East 534 615 37,000  Level Minneapolis Center
Mon 11:55:24 PM 40.1683 -96.4664 130° Southeast 538 619 37,000  Level Minneapolis Center
Mon 11:56:31 PM 40.0561 -96.3128 134° Southeast 537 618 37,000  Level Kansas Center
Mon 11:57:32 PM 39.9550 -96.1697 133° Southeast 537 618 37,000  Level Kansas Center
Mon 11:58:33 PM 39.8636 -96.0414 133° Southeast 535 616 37,000  Level Kansas Center
Mon 11:59:34 PM 39.7625 -95.8997 133° Southeast 535 616 37,000  Level Kansas Center
Tue 12:00:37 AM 39.6614 -95.7594 133° Southeast 535 616 37,000  Level Kansas Center
Tue 12:01:38 AM 39.5603 -95.6197 133° Southeast 534 615 37,000  Level Kansas Center
Tue 12:02:38 AM 39.4436 -95.4603 133° Southeast 534 615 37,000  Level Kansas Center
Tue 12:03:40 AM 39.3367 -95.3147 134° Southeast 535 616 37,000  Level Kansas Center
Tue 12:04:41 AM 39.2289 -95.1694 134° Southeast 535 616 37,000  Level Kansas Center
Tue 12:05:42 AM 39.1403 -95.0497 134° Southeast 537 618 37,000  Level Kansas Center
Tue 12:06:40 AM 39.0378 -94.9128 134° Southeast 536 617 37,000  Level Kansas Center
Tue 12:07:41 AM 38.9356 -94.7761 134° Southeast 535 616 37,000  Level Kansas Center
Tue 12:08:43 AM 38.8328 -94.6400 134° Southeast 533 613 37,000  Level Kansas Center
Tue 12:09:45 AM 38.7303 -94.5033 134° Southeast 533 613 37,000  Level Kansas Center
Tue 12:10:46 AM 38.6064 -94.3394 134° Southeast 533 613 37,000  Level Kansas Center
Tue 12:11:46 AM 38.5033 -94.2064 135° Southeast 532 612 37,000  Level Kansas Center
Tue 12:12:46 AM 38.4117 -94.0858 134° Southeast 529 609 37,000  Level Kansas Center
Tue 12:13:49 AM 38.3092 -93.9517 134° Southeast 527 606 37,000  Level Kansas Center
Tue 12:14:49 AM 38.2058 -93.8192 135° Southeast 527 606 37,000  Level Kansas Center
Tue 12:15:50 AM 38.1053 -93.6864 134° Southeast 526 605 37,000  Level Kansas Center
Tue 12:16:51 AM 37.9836 -93.5278 134° Southeast 523 602 37,000  Level Kansas Center
Tue 12:17:52 AM 37.8806 -93.3972 135° Southeast 523 602 37,000  Level Kansas Center
Tue 12:18:52 AM 37.7781 -93.2661 135° Southeast 523 602 37,000  Level Kansas Center
Tue 12:19:54 AM 37.6753 -93.1364 135° Southeast 523 602 37,000  Level Kansas Center
Tue 12:20:55 AM 37.5739 -93.0058 134° Southeast 523 602 37,000  Level Kansas Center
Tue 12:21:53 AM 37.4703 -92.8772 135° Southeast 524 603 37,000  Level Kansas Center
Tue 12:22:54 AM 37.3656 -92.7458 135° Southeast 529 609 37,000  Level Kansas Center
Tue 12:23:57 AM 37.2622 -92.6153 135° Southeast 528 608 37,000  Level Kansas Center
Tue 12:24:56 AM 37.1586 -92.4867 135° Southeast 528 608 37,000  Level Kansas Center
Tue 12:25:59 AM 37.0553 -92.3600 136° Southeast 525 604 37,000  Level Kansas Center
Tue 12:26:58 AM 36.9528 -92.2344 136° Southeast 523 602 37,000  Level Kansas Center
Tue 12:27:40 AM 36.8708 -92.1319 135° Southeast 524 603 37,000  Level Memphis Center
Tue 12:28:40 AM 36.7683 -92.0050 135° Southeast 522 601 37,000  Level Memphis Center
Tue 12:29:41 AM 36.6647 -91.8806 136° Southeast 520 598 37,000 -197 Level Memphis Center
Tue 12:30:42 AM 36.5625 -91.7544 135° Southeast 520 598 36,600 -934 Descending Memphis Center
Tue 12:31:43 AM 36.4603 -91.6303 136° Southeast 519 597 35,100 -793 Descending Memphis Center
Tue 12:32:43 AM 36.3575 -91.5069 136° Southeast 519 597 35,000 -149 Descending Memphis Center
Tue 12:33:44 AM 36.2556 -91.3839 136° Southeast 516 594 34,800 -1,438 Descending Memphis Center
Tue 12:34:44 AM 36.1483 -91.2753 141° Southeast 507 583 32,100 -2,628 Descending Memphis Center
Tue 12:35:45 AM 36.0186 -91.1947 153° Southeast 516 594 29,500 -2,902 Descending Memphis Center
Tue 12:36:46 AM 35.8894 -91.1186 154° Southeast 517 595 26,200 -3,818 Descending Memphis Center
Tue 12:37:46 AM 35.7464 -91.0319 154° Southeast 489 563 21,800 -2,727 Descending Memphis Center
Tue 12:38:47 AM 35.6575 -90.9794 154° Southeast 451 519 20,700 -1,426 Descending Memphis Center
Tue 12:39:48 AM 35.5533 -90.9175 154° Southeast 426 490 18,900 -1,686 Descending Memphis Center
Tue 12:40:48 AM 35.4697 -90.8033 132° Southeast 387 445 17,300 -1,537 Descending Memphis Center
Tue 12:41:49 AM 35.4283 -90.6928 115° Southeast 364 419 15,800 -1,438 Descending Memphis Center
Tue 12:42:49 AM 35.3883 -90.5850 114° Southeast 353 406 14,400 -1,785 Descending Memphis Center
Tue 12:43:50 AM 35.3478 -90.4814 116° Southeast 344 396 12,200 -1,574 Descending Memphis Center
Tue 12:44:51 AM 35.2967 -90.4014 128° Southeast 307 353 11,200 -1,091 Descending Memphis Center
Tue 12:45:51 AM 35.2439 -90.3244 130° Southeast 300 345 10,000 -1,091 Descending Memphis Center
Tue 12:46:52 AM 35.1928 -90.2486 130° Southeast 293 337 9,000 -496 Descending Memphis Center
Tue 12:47:52 AM 35.1442 -90.1744 129° Southeast 286 329 9,000 -275 Level Memphis Center
Tue 12:48:41 AM 35.1000 -90.1167 133° Southeast 255 293 8,500 -826 Descending KMEM
Tue 12:49:41 AM 35.0333 -90.1000 168° South 238 274 7,500 -1,211 Descending KMEM
Tue 12:50:35 AM 34.9833 -90.1000 180° South 242 278 6,200 -1,550 Descending KMEM
Tue 12:51:41 AM 34.9000 -90.1000 180° South 227 261 4,400 -1,250 Descending KMEM
Tue 12:52:35 AM 34.8500 -90.1000 180° South 219 252 3,700 -778 Descending KMEM
Tue 12:53:29 AM 34.8167 -90.0667 141° Southeast 210 242 3,000 -450 Descending KMEM
Tue 12:54:35 AM 34.8167 -90.0000 90° East 172 198 2,800 -455 Descending KMEM
Tue 12:55:41 AM 34.8667 -89.9667 29° Northeast 178 205 2,000 -400 Descending KMEM
Tue 12:56:35 AM 34.9167 -89.9667 360° North 182 209 2,000 -238 Level KMEM
Tue 12:57:47 AM 34.9667 -89.9667 360° North 178 205 1,500 -571 Descending KMEM
Tue 12:58:41 AM 35.0000 -89.9667 360° North 148 170 800 -778 Descending KMEM
Tue 01:01:00 AM 35.0333 -89.9667 129° Southeast  Level FlightAware

Login

Don't have an account? Register now (free) for customized features, flight alerts, and more!